CheckWX is a tool to help pilots better visualize weather data.  It is not intended as a substitute for an official pre-flight weather briefing.

05:13:24 UTC

KMCF METAR
Macdill AFB Airport
Tampa, Florida, USA
Current

4 hours ago

KMCF 240056Z AUTO 20006KT 10SM CLR 24/21 A3008 RMK AO2 SLP189 T02360213 FZRANO $
Observed
Feb-24 @ 00:56 UTC
Wind
  • 200° at 6 KTS
Visibility
10 SM
Flight Rules
VFR
Cloud Levels
  • Clear skies
Temperature
24°C / 75°F
Dewpoint
21°C / 70°F
Humidity
83%
Altimeter
30.08" Hg
Pressure
1018.9 hPa
Previous

5 hours ago

KMCF 232356Z AUTO 21009KT 10SM CLR 24/21 A3007 RMK AO2 SLP186 60000 T02390212 10294 20239 52006 FZRANO $
Observed
Feb-23 @ 23:56 UTC
Wind
  • 210° at 9 KTS
Visibility
10 SM
Flight Rules
VFR
Cloud Levels
  • Clear skies
Temperature
24°C / 75°F
Dewpoint
21°C / 70°F
Humidity
83%
Altimeter
30.07" Hg
Pressure
1018.6 hPa
Previous

6 hours ago

KMCF 232256Z AUTO 22012KT 10SM CLR 25/21 A3006 RMK AO2 SLP182 T02500211 FZRANO $
Observed
Feb-23 @ 22:56 UTC
Wind
  • 220° at 12 KTS
Visibility
10 SM
Flight Rules
VFR
Cloud Levels
  • Clear skies
Temperature
25°C / 77°F
Dewpoint
21°C / 70°F
Humidity
79%
Altimeter
30.06" Hg
Pressure
1018.2 hPa